sensor_id;sensor_type;location;lat;lon;timestamp;pressure;altitude;pressure_sealevel;temperature;humidity
16777;BME280;8505;49.456;8.164;2023-01-30T00:02:06;100476.19;;;1.49;74.24
16777;BME280;8505;49.456;8.164;2023-01-30T00:04:33;100469.41;;;1.47;74.86
16777;BME280;8505;49.456;8.164;2023-01-30T00:07:01;100482.72;;;1.56;74.26
16777;BME280;8505;49.456;8.164;2023-01-30T00:09:28;100490.53;;;1.42;73.74
16777;BME280;8505;49.456;8.164;2023-01-30T00:11:56;100491.75;;;1.37;75.14
16777;BME280;8505;49.456;8.164;2023-01-30T00:14:25;100484.81;;;1.23;75.75
16777;BME280;8505;49.456;8.164;2023-01-30T00:16:53;100484.59;;;1.26;75.85
16777;BME280;8505;49.456;8.164;2023-01-30T00:19:20;100489.47;;;1.04;76.00
16777;BME280;8505;49.456;8.164;2023-01-30T00:21:48;100467.84;;;1.02;76.30
16777;BME280;8505;49.456;8.164;2023-01-30T00:24:19;100481.81;;;1.01;76.95
16777;BME280;8505;49.456;8.164;2023-01-30T00:26:46;100454.16;;;0.98;77.10
16777;BME280;8505;49.456;8.164;2023-01-30T00:29:14;100470.34;;;0.89;77.59
16777;BME280;8505;49.456;8.164;2023-01-30T00:31:43;100468.59;;;0.90;77.57
16777;BME280;8505;49.456;8.164;2023-01-30T00:34:11;100473.88;;;0.88;77.58
16777;BME280;8505;49.456;8.164;2023-01-30T00:36:39;100478.63;;;0.81;77.97
16777;BME280;8505;49.456;8.164;2023-01-30T00:39:06;100489.53;;;0.88;78.38
16777;BME280;8505;49.456;8.164;2023-01-30T00:41:34;100489.44;;;0.90;78.62
16777;BME280;8505;49.456;8.164;2023-01-30T00:44:15;100487.97;;;0.86;78.37
16777;BME280;8505;49.456;8.164;2023-01-30T00:47:01;100476.13;;;0.94;78.21
16777;BME280;8505;49.456;8.164;2023-01-30T00:49:34;100468.59;;;0.90;78.79
16777;BME280;8505;49.456;8.164;2023-01-30T00:52:02;100452.19;;;0.73;79.72
16777;BME280;8505;49.456;8.164;2023-01-30T00:54:30;100447.72;;;0.75;79.80
16777;BME280;8505;49.456;8.164;2023-01-30T00:56:58;100431.44;;;0.72;80.06
16777;BME280;8505;49.456;8.164;2023-01-30T00:59:25;100438.97;;;0.76;80.14
16777;BME280;8505;49.456;8.164;2023-01-30T01:01:53;100414.03;;;0.72;80.49
16777;BME280;8505;49.456;8.164;2023-01-30T01:04:23;100404.91;;;0.65;80.76
16777;BME280;8505;49.456;8.164;2023-01-30T01:06:50;100401.75;;;0.60;81.44
16777;BME280;8505;49.456;8.164;2023-01-30T01:09:18;100400.81;;;0.75;80.87
16777;BME280;8505;49.456;8.164;2023-01-30T01:11:45;100396.91;;;0.82;81.08
16777;BME280;8505;49.456;8.164;2023-01-30T01:14:13;100387.13;;;0.86;80.45
16777;BME280;8505;49.456;8.164;2023-01-30T01:16:41;100391.75;;;0.81;80.78
16777;BME280;8505;49.456;8.164;2023-01-30T01:19:08;100368.97;;;0.85;80.91
16777;BME280;8505;49.456;8.164;2023-01-30T01:21:37;100386.56;;;0.95;80.49
16777;BME280;8505;49.456;8.164;2023-01-30T01:24:06;100380.78;;;0.90;80.89
16777;BME280;8505;49.456;8.164;2023-01-30T01:26:33;100383.09;;;0.95;80.64
16777;BME280;8505;49.456;8.164;2023-01-30T01:29:01;100376.50;;;0.89;80.83
16777;BME280;8505;49.456;8.164;2023-01-30T01:31:29;100387.28;;;0.69;81.33
16777;BME280;8505;49.456;8.164;2023-01-30T01:33:56;100364.97;;;0.65;81.26
16777;BME280;8505;49.456;8.164;2023-01-30T01:36:24;100373.91;;;0.61;81.50
16777;BME280;8505;49.456;8.164;2023-01-30T01:39:13;100357.53;;;0.59;81.55
16777;BME280;8505;49.456;8.164;2023-01-30T01:41:41;100377.38;;;0.61;81.42
16777;BME280;8505;49.456;8.164;2023-01-30T01:44:09;100379.38;;;0.56;81.24
16777;BME280;8505;49.456;8.164;2023-01-30T01:46:39;100384.22;;;0.62;81.26
16777;BME280;8505;49.456;8.164;2023-01-30T01:49:13;100367.28;;;0.69;81.14
16777;BME280;8505;49.456;8.164;2023-01-30T01:51:48;100355.66;;;0.75;80.57
16777;BME280;8505;49.456;8.164;2023-01-30T01:54:23;100358.00;;;0.79;80.78
16777;BME280;8505;49.456;8.164;2023-01-30T01:56:53;100349.44;;;0.63;81.00
16777;BME280;8505;49.456;8.164;2023-01-30T01:59:25;100331.09;;;0.65;81.28
16777;BME280;8505;49.456;8.164;2023-01-30T02:01:57;100317.31;;;0.77;80.98
16777;BME280;8505;49.456;8.164;2023-01-30T02:04:27;100308.19;;;0.70;80.90
16777;BME280;8505;49.456;8.164;2023-01-30T02:07:16;100310.72;;;0.71;81.01
16777;BME280;8505;49.456;8.164;2023-01-30T02:09:46;100295.72;;;0.75;81.15
16777;BME280;8505;49.456;8.164;2023-01-30T02:12:14;100302.16;;;0.69;81.24
16777;BME280;8505;49.456;8.164;2023-01-30T02:14:42;100305.16;;;1.04;80.12
16777;BME280;8505;49.456;8.164;2023-01-30T02:17:10;100298.38;;;1.02;80.03
16777;BME280;8505;49.456;8.164;2023-01-30T02:19:46;100294.69;;;1.18;79.51
16777;BME280;8505;49.456;8.164;2023-01-30T02:22:35;100308.44;;;1.35;79.11
16777;BME280;8505;49.456;8.164;2023-01-30T02:31:32;100309.59;;;1.16;79.83
16777;BME280;8505;49.456;8.164;2023-01-30T02:34:15;100306.75;;;1.34;79.04
16777;BME280;8505;49.456;8.164;2023-01-30T02:36:58;100295.81;;;1.41;78.81
16777;BME280;8505;49.456;8.164;2023-01-30T02:39:35;100284.50;;;1.28;79.22
16777;BME280;8505;49.456;8.164;2023-01-30T02:42:13;100270.84;;;1.37;79.34
16777;BME280;8505;49.456;8.164;2023-01-30T02:44:51;100270.31;;;1.32;79.53
16777;BME280;8505;49.456;8.164;2023-01-30T02:47:48;100273.97;;;1.30;80.15
16777;BME280;8505;49.456;8.164;2023-01-30T02:50:22;100298.91;;;1.07;81.50
16777;BME280;8505;49.456;8.164;2023-01-30T02:52:52;100296.22;;;0.94;81.98
16777;BME280;8505;49.456;8.164;2023-01-30T02:55:22;100317.78;;;0.84;82.83
16777;BME280;8505;49.456;8.164;2023-01-30T02:57:50;100309.88;;;0.85;82.54
16777;BME280;8505;49.456;8.164;2023-01-30T03:00:21;100294.69;;;0.92;82.50
16777;BME280;8505;49.456;8.164;2023-01-30T03:03:15;100294.38;;;0.96;82.14
16777;BME280;8505;49.456;8.164;2023-01-30T03:06:12;100301.91;;;1.01;82.34
16777;BME280;8505;49.456;8.164;2023-01-30T03:08:52;100303.41;;;1.05;82.42
16777;BME280;8505;49.456;8.164;2023-01-30T03:11:33;100298.75;;;0.96;82.83
16777;BME280;8505;49.456;8.164;2023-01-30T03:14:10;100284.03;;;0.95;82.61
16777;BME280;8505;49.456;8.164;2023-01-30T03:16:40;100286.47;;;0.98;82.74
16777;BME280;8505;49.456;8.164;2023-01-30T03:19:11;100295.41;;;0.94;83.04
16777;BME280;8505;49.456;8.164;2023-01-30T03:21:39;100307.72;;;0.92;83.01
16777;BME280;8505;49.456;8.164;2023-01-30T03:24:07;100307.44;;;0.82;83.36
16777;BME280;8505;49.456;8.164;2023-01-30T03:26:38;100300.59;;;0.94;83.12
16777;BME280;8505;49.456;8.164;2023-01-30T03:29:06;100293.53;;;0.96;83.17
16777;BME280;8505;49.456;8.164;2023-01-30T03:31:34;100274.22;;;0.86;83.08
16777;BME280;8505;49.456;8.164;2023-01-30T03:34:02;100292.41;;;1.00;83.07
16777;BME280;8505;49.456;8.164;2023-01-30T03:36:31;100288.28;;;1.10;82.65
16777;BME280;8505;49.456;8.164;2023-01-30T03:38:59;100285.31;;;1.02;83.24
16777;BME280;8505;49.456;8.164;2023-01-30T03:41:27;100283.50;;;0.90;83.33
16777;BME280;8505;49.456;8.164;2023-01-30T03:43:54;100294.03;;;1.15;82.56
16777;BME280;8505;49.456;8.164;2023-01-30T03:46:22;100291.44;;;1.15;81.89
16777;BME280;8505;49.456;8.164;2023-01-30T03:48:50;100294.22;;;1.12;82.90
16777;BME280;8505;49.456;8.164;2023-01-30T03:51:18;100290.59;;;1.14;82.51
16777;BME280;8505;49.456;8.164;2023-01-30T03:53:47;100277.50;;;1.02;82.70
16777;BME280;8505;49.456;8.164;2023-01-30T03:56:15;100284.72;;;0.84;83.91
16777;BME280;8505;49.456;8.164;2023-01-30T03:58:43;100274.16;;;1.00;84.02
16777;BME280;8505;49.456;8.164;2023-01-30T04:01:10;100265.53;;;1.12;83.26
16777;BME280;8505;49.456;8.164;2023-01-30T04:03:38;100267.81;;;1.04;83.23
16777;BME280;8505;49.456;8.164;2023-01-30T04:06:06;100266.38;;;0.86;83.75
16777;BME280;8505;49.456;8.164;2023-01-30T04:08:34;100275.47;;;0.93;83.35
16777;BME280;8505;49.456;8.164;2023-01-30T04:11:03;100256.41;;;0.92;83.37
16777;BME280;8505;49.456;8.164;2023-01-30T04:13:30;100250.16;;;0.95;82.97
16777;BME280;8505;49.456;8.164;2023-01-30T04:16:15;100252.50;;;1.12;82.65
16777;BME280;8505;49.456;8.164;2023-01-30T04:18:43;100260.38;;;1.25;81.85
16777;BME280;8505;49.456;8.164;2023-01-30T04:21:11;100236.06;;;1.24;82.41
16777;BME280;8505;49.456;8.164;2023-01-30T04:23:39;100247.34;;;1.25;82.45
16777;BME280;8505;49.456;8.164;2023-01-30T04:26:09;100243.78;;;1.26;81.93
16777;BME280;8505;49.456;8.164;2023-01-30T04:28:37;100238.00;;;1.35;81.66
16777;BME280;8505;49.456;8.164;2023-01-30T04:31:05;100232.91;;;1.19;81.95
16777;BME280;8505;49.456;8.164;2023-01-30T04:33:33;100241.50;;;1.21;82.05
16777;BME280;8505;49.456;8.164;2023-01-30T04:36:03;100242.63;;;1.17;82.06
16777;BME280;8505;49.456;8.164;2023-01-30T04:38:31;100251.94;;;1.21;81.64
16777;BME280;8505;49.456;8.164;2023-01-30T04:40:59;100246.63;;;1.23;81.81
16777;BME280;8505;49.456;8.164;2023-01-30T04:43:29;100233.13;;;1.16;82.09
16777;BME280;8505;49.456;8.164;2023-01-30T04:45:57;100239.59;;;1.10;81.82
16777;BME280;8505;49.456;8.164;2023-01-30T04:48:25;100213.00;;;1.18;81.61
16777;BME280;8505;49.456;8.164;2023-01-30T04:50:55;100195.34;;;1.09;82.61
16777;BME280;8505;49.456;8.164;2023-01-30T04:53:24;100212.28;;;1.16;82.63
16777;BME280;8505;49.456;8.164;2023-01-30T04:55:51;100196.63;;;1.16;82.73
16777;BME280;8505;49.456;8.164;2023-01-30T04:58:19;100192.78;;;1.21;83.00
16777;BME280;8505;49.456;8.164;2023-01-30T05:00:48;100194.53;;;1.21;83.18
16777;BME280;8505;49.456;8.164;2023-01-30T05:03:16;100201.63;;;1.19;83.33
16777;BME280;8505;49.456;8.164;2023-01-30T05:05:45;100201.13;;;1.27;83.40
16777;BME280;8505;49.456;8.164;2023-01-30T05:08:13;100205.06;;;1.19;83.34
16777;BME280;8505;49.456;8.164;2023-01-30T05:10:41;100193.81;;;1.19;83.58
16777;BME280;8505;49.456;8.164;2023-01-30T05:13:09;100204.22;;;1.19;83.70
16777;BME280;8505;49.456;8.164;2023-01-30T05:15:37;100200.16;;;1.15;83.41
16777;BME280;8505;49.456;8.164;2023-01-30T05:18:07;100189.13;;;1.24;83.48
16777;BME280;8505;49.456;8.164;2023-01-30T05:20:34;100200.91;;;1.17;83.28
16777;BME280;8505;49.456;8.164;2023-01-30T05:23:02;100180.88;;;1.30;82.77
16777;BME280;8505;49.456;8.164;2023-01-30T05:25:29;100178.69;;;1.24;82.94
16777;BME280;8505;49.456;8.164;2023-01-30T05:27:57;100186.31;;;1.27;82.71
16777;BME280;8505;49.456;8.164;2023-01-30T05:30:25;100179.84;;;1.33;82.55
16777;BME280;8505;49.456;8.164;2023-01-30T05:32:53;100174.31;;;1.37;82.33
16777;BME280;8505;49.456;8.164;2023-01-30T05:35:22;100162.13;;;1.38;82.40
16777;BME280;8505;49.456;8.164;2023-01-30T05:37:49;100172.97;;;1.44;82.10
16777;BME280;8505;49.456;8.164;2023-01-30T05:40:17;100160.69;;;1.46;82.44
16777;BME280;8505;49.456;8.164;2023-01-30T05:42:45;100182.50;;;1.58;82.07
16777;BME280;8505;49.456;8.164;2023-01-30T05:45:15;100178.44;;;1.54;82.11
16777;BME280;8505;49.456;8.164;2023-01-30T05:47:43;100180.72;;;1.46;82.58
16777;BME280;8505;49.456;8.164;2023-01-30T05:50:10;100196.38;;;1.46;82.32
16777;BME280;8505;49.456;8.164;2023-01-30T05:52:39;100202.00;;;1.52;82.37
16777;BME280;8505;49.456;8.164;2023-01-30T05:55:08;100199.19;;;1.55;82.33
16777;BME280;8505;49.456;8.164;2023-01-30T05:57:35;100193.44;;;1.63;82.03
16777;BME280;8505;49.456;8.164;2023-01-30T06:00:04;100195.97;;;1.65;81.58
16777;BME280;8505;49.456;8.164;2023-01-30T06:02:32;100193.44;;;1.63;81.93
16777;BME280;8505;49.456;8.164;2023-01-30T06:05:00;100186.16;;;1.68;82.02
16777;BME280;8505;49.456;8.164;2023-01-30T06:07:27;100194.09;;;1.67;82.22
16777;BME280;8505;49.456;8.164;2023-01-30T06:09:56;100187.22;;;1.78;81.80
16777;BME280;8505;49.456;8.164;2023-01-30T06:12:24;100185.22;;;1.82;81.53
16777;BME280;8505;49.456;8.164;2023-01-30T06:14:51;100183.03;;;1.76;81.91
16777;BME280;8505;49.456;8.164;2023-01-30T06:17:19;100174.56;;;1.72;82.22
16777;BME280;8505;49.456;8.164;2023-01-30T06:19:47;100176.53;;;1.69;82.10
16777;BME280;8505;49.456;8.164;2023-01-30T06:22:14;100177.38;;;1.69;82.54
16777;BME280;8505;49.456;8.164;2023-01-30T06:24:42;100169.34;;;1.72;82.09
16777;BME280;8505;49.456;8.164;2023-01-30T06:27:11;100173.09;;;1.81;81.92
16777;BME280;8505;49.456;8.164;2023-01-30T06:29:39;100175.19;;;1.88;81.56
16777;BME280;8505;49.456;8.164;2023-01-30T06:32:07;100182.41;;;1.85;81.42
16777;BME280;8505;49.456;8.164;2023-01-30T06:34:35;100181.25;;;1.89;81.80
16777;BME280;8505;49.456;8.164;2023-01-30T06:37:03;100196.25;;;1.98;81.54
16777;BME280;8505;49.456;8.164;2023-01-30T06:39:31;100182.69;;;1.68;82.55
16777;BME280;8505;49.456;8.164;2023-01-30T06:41:58;100188.34;;;1.74;82.58
16777;BME280;8505;49.456;8.164;2023-01-30T06:44:27;100189.19;;;1.75;82.30
16777;BME280;8505;49.456;8.164;2023-01-30T06:46:54;100192.31;;;1.80;82.51
16777;BME280;8505;49.456;8.164;2023-01-30T06:49:22;100185.13;;;1.71;82.70
16777;BME280;8505;49.456;8.164;2023-01-30T06:51:50;100177.28;;;1.71;82.75
16777;BME280;8505;49.456;8.164;2023-01-30T06:54:17;100153.28;;;1.78;82.58
16777;BME280;8505;49.456;8.164;2023-01-30T06:56:45;100161.28;;;1.88;82.06
16777;BME280;8505;49.456;8.164;2023-01-30T06:59:13;100159.41;;;1.90;81.92
16777;BME280;8505;49.456;8.164;2023-01-30T07:01:41;100159.41;;;1.90;82.08
16777;BME280;8505;49.456;8.164;2023-01-30T07:04:09;100157.22;;;1.96;81.51
16777;BME280;8505;49.456;8.164;2023-01-30T07:06:39;100145.00;;;1.97;81.91
16777;BME280;8505;49.456;8.164;2023-01-30T07:09:06;100150.63;;;2.03;81.71
16777;BME280;8505;49.456;8.164;2023-01-30T07:11:34;100151.34;;;2.06;81.79
16777;BME280;8505;49.456;8.164;2023-01-30T07:14:02;100154.69;;;2.08;81.53
16777;BME280;8505;49.456;8.164;2023-01-30T07:16:31;100146.44;;;2.01;81.84
16777;BME280;8505;49.456;8.164;2023-01-30T07:19:00;100156.22;;;2.10;81.25
16777;BME280;8505;49.456;8.164;2023-01-30T07:21:28;100142.53;;;2.19;81.42
16777;BME280;8505;49.456;8.164;2023-01-30T07:23:55;100144.44;;;2.04;81.85
16777;BME280;8505;49.456;8.164;2023-01-30T07:26:24;100137.16;;;1.97;82.23
16777;BME280;8505;49.456;8.164;2023-01-30T07:28:52;100135.78;;;1.91;82.91
16777;BME280;8505;49.456;8.164;2023-01-30T07:31:19;100130.03;;;1.99;82.39
16777;BME280;8505;49.456;8.164;2023-01-30T07:33:47;100140.91;;;2.06;82.39
16777;BME280;8505;49.456;8.164;2023-01-30T07:36:16;100136.31;;;2.09;82.71
16777;BME280;8505;49.456;8.164;2023-01-30T07:38:46;100136.75;;;2.03;82.69
16777;BME280;8505;49.456;8.164;2023-01-30T07:41:14;100140.72;;;1.96;82.95
16777;BME280;8505;49.456;8.164;2023-01-30T07:43:42;100154.47;;;1.98;82.60
16777;BME280;8505;49.456;8.164;2023-01-30T07:46:09;100138.31;;;1.93;83.31
16777;BME280;8505;49.456;8.164;2023-01-30T07:48:37;100122.63;;;2.06;82.92
16777;BME280;8505;49.456;8.164;2023-01-30T07:51:05;100123.16;;;1.98;82.99
16777;BME280;8505;49.456;8.164;2023-01-30T07:53:34;100122.97;;;1.88;83.47
16777;BME280;8505;49.456;8.164;2023-01-30T07:56:05;100098.72;;;1.86;83.27
16777;BME280;8505;49.456;8.164;2023-01-30T07:58:33;100096.84;;;1.88;83.28
16777;BME280;8505;49.456;8.164;2023-01-30T08:01:01;100101.03;;;1.91;83.33
16777;BME280;8505;49.456;8.164;2023-01-30T08:03:29;100103.31;;;1.95;82.92
16777;BME280;8505;49.456;8.164;2023-01-30T08:05:56;100113.03;;;1.93;82.75
16777;BME280;8505;49.456;8.164;2023-01-30T08:08:24;100119.81;;;1.96;82.76
16777;BME280;8505;49.456;8.164;2023-01-30T08:10:53;100112.00;;;1.96;83.65
16777;BME280;8505;49.456;8.164;2023-01-30T08:13:20;100113.75;;;1.95;83.96
16777;BME280;8505;49.456;8.164;2023-01-30T08:15:48;100111.50;;;1.91;84.29
16777;BME280;8505;49.456;8.164;2023-01-30T08:18:16;100099.13;;;1.93;84.57
16777;BME280;8505;49.456;8.164;2023-01-30T08:20:43;100096.53;;;1.93;84.79
16777;BME280;8505;49.456;8.164;2023-01-30T08:23:11;100103.66;;;1.91;85.35
16777;BME280;8505;49.456;8.164;2023-01-30T08:25:38;100109.28;;;1.97;84.69
16777;BME280;8505;49.456;8.164;2023-01-30T08:28:07;100108.22;;;2.00;84.60
16777;BME280;8505;49.456;8.164;2023-01-30T08:30:35;100111.56;;;2.02;85.01
16777;BME280;8505;49.456;8.164;2023-01-30T08:33:03;100101.81;;;2.04;84.76
16777;BME280;8505;49.456;8.164;2023-01-30T08:35:30;100079.06;;;2.06;84.32
16777;BME280;8505;49.456;8.164;2023-01-30T08:37:58;100093.56;;;2.10;84.22
16777;BME280;8505;49.456;8.164;2023-01-30T08:40:26;100095.22;;;2.11;84.32
16777;BME280;8505;49.456;8.164;2023-01-30T08:42:54;100102.03;;;2.14;83.99
16777;BME280;8505;49.456;8.164;2023-01-30T08:45:23;100105.13;;;2.19;83.31
16777;BME280;8505;49.456;8.164;2023-01-30T08:47:50;100099.03;;;2.31;83.35
16777;BME280;8505;49.456;8.164;2023-01-30T08:50:18;100093.47;;;2.35;82.67
16777;BME280;8505;49.456;8.164;2023-01-30T08:52:46;100110.72;;;2.38;82.27
16777;BME280;8505;49.456;8.164;2023-01-30T08:55:14;100110.72;;;2.38;82.73
16777;BME280;8505;49.456;8.164;2023-01-30T08:57:42;100111.22;;;2.43;81.97
16777;BME280;8505;49.456;8.164;2023-01-30T09:00:10;100120.84;;;2.42;82.16
16777;BME280;8505;49.456;8.164;2023-01-30T09:02:40;100105.66;;;2.48;81.41
16777;BME280;8505;49.456;8.164;2023-01-30T09:05:08;100127.09;;;2.53;81.38
16777;BME280;8505;49.456;8.164;2023-01-30T09:07:37;100094.66;;;2.55;80.88
16777;BME280;8505;49.456;8.164;2023-01-30T09:10:05;100079.81;;;2.56;81.39
16777;BME280;8505;49.456;8.164;2023-01-30T09:12:33;100085.13;;;2.54;81.50
16777;BME280;8505;49.456;8.164;2023-01-30T09:15:00;100090.25;;;2.56;81.50
16777;BME280;8505;49.456;8.164;2023-01-30T09:17:28;100088.69;;;2.53;81.38
16777;BME280;8505;49.456;8.164;2023-01-30T09:19:57;100082.41;;;2.56;81.45
16777;BME280;8505;49.456;8.164;2023-01-30T09:22:25;100090.75;;;2.61;80.75
16777;BME280;8505;49.456;8.164;2023-01-30T09:24:52;100078.78;;;2.69;80.50
16777;BME280;8505;49.456;8.164;2023-01-30T09:27:20;100076.06;;;2.71;80.69
16777;BME280;8505;49.456;8.164;2023-01-30T09:29:47;100077.97;;;2.69;80.27
16777;BME280;8505;49.456;8.164;2023-01-30T09:32:15;100075.25;;;2.70;80.80
16777;BME280;8505;49.456;8.164;2023-01-30T09:34:43;100069.16;;;2.70;80.59
16777;BME280;8505;49.456;8.164;2023-01-30T09:37:12;100064.63;;;2.72;80.63
16777;BME280;8505;49.456;8.164;2023-01-30T09:39:39;100066.81;;;2.78;80.50
16777;BME280;8505;49.456;8.164;2023-01-30T09:42:33;100063.25;;;2.79;80.04
16777;BME280;8505;49.456;8.164;2023-01-30T09:45:36;100075.66;;;2.88;80.19
16777;BME280;8505;49.456;8.164;2023-01-30T09:48:13;100071.19;;;3.01;79.70
16777;BME280;8505;49.456;8.164;2023-01-30T09:50:57;100063.69;;;3.08;79.39
16777;BME280;8505;49.456;8.164;2023-01-30T09:53:36;100088.78;;;3.21;78.89
16777;BME280;8505;49.456;8.164;2023-01-30T09:56:06;100076.56;;;3.22;78.98
16777;BME280;8505;49.456;8.164;2023-01-30T09:58:41;100091.81;;;3.39;78.83
16777;BME280;8505;49.456;8.164;2023-01-30T10:01:16;100106.81;;;3.37;78.30
16777;BME280;8505;49.456;8.164;2023-01-30T10:03:57;100108.47;;;3.38;78.76
16777;BME280;8505;49.456;8.164;2023-01-30T10:06:28;100109.56;;;3.58;78.46
16777;BME280;8505;49.456;8.164;2023-01-30T10:09:02;100102.78;;;3.55;77.83
16777;BME280;8505;49.456;8.164;2023-01-30T10:11:44;100105.75;;;3.73;78.29
16777;BME280;8505;49.456;8.164;2023-01-30T10:14:26;100103.72;;;3.77;77.33
16777;BME280;8505;49.456;8.164;2023-01-30T10:17:09;100094.34;;;3.74;77.66
16777;BME280;8505;49.456;8.164;2023-01-30T10:19:56;100093.38;;;3.97;76.92
16777;BME280;8505;49.456;8.164;2023-01-30T10:22:38;100079.06;;;4.01;77.03
16777;BME280;8505;49.456;8.164;2023-01-30T10:25:23;100081.53;;;4.14;77.06
16777;BME280;8505;49.456;8.164;2023-01-30T10:27:57;100077.47;;;4.21;76.44
16777;BME280;8505;49.456;8.164;2023-01-30T10:30:28;100087.09;;;4.43;76.03
16777;BME280;8505;49.456;8.164;2023-01-30T10:32:57;100080.47;;;4.17;76.61
16777;BME280;8505;49.456;8.164;2023-01-30T10:35:31;100076.50;;;4.33;76.32
16777;BME280;8505;49.456;8.164;2023-01-30T10:38:06;100069.41;;;4.56;76.57
16777;BME280;8505;49.456;8.164;2023-01-30T10:40:43;100094.59;;;4.47;76.63
16777;BME280;8505;49.456;8.164;2023-01-30T10:43:17;100087.75;;;4.24;77.56
16777;BME280;8505;49.456;8.164;2023-01-30T10:45:54;100100.97;;;4.23;78.30
16777;BME280;8505;49.456;8.164;2023-01-30T10:48:54;100108.44;;;4.27;79.02
16777;BME280;8505;49.456;8.164;2023-01-30T10:51:32;100120.00;;;4.36;79.05
16777;BME280;8505;49.456;8.164;2023-01-30T10:54:11;100108.31;;;4.72;76.58
16777;BME280;8505;49.456;8.164;2023-01-30T10:56:50;100115.28;;;4.51;77.06
16777;BME280;8505;49.456;8.164;2023-01-30T10:59:22;100117.91;;;4.62;77.32
16777;BME280;8505;49.456;8.164;2023-01-30T11:01:59;100090.25;;;5.10;76.07
16777;BME280;8505;49.456;8.164;2023-01-30T11:04:34;100101.34;;;4.61;77.97
16777;BME280;8505;49.456;8.164;2023-01-30T11:07:05;100091.16;;;4.36;78.20
16777;BME280;8505;49.456;8.164;2023-01-30T11:09:40;100089.91;;;4.83;76.94
16777;BME280;8505;49.456;8.164;2023-01-30T11:12:10;100104.53;;;4.65;76.96
16777;BME280;8505;49.456;8.164;2023-01-30T11:14:52;100078.53;;;5.35;74.26
16777;BME280;8505;49.456;8.164;2023-01-30T11:17:27;100073.72;;;5.40;74.12
16777;BME280;8505;49.456;8.164;2023-01-30T11:19:56;100077.03;;;5.12;73.99
16777;BME280;8505;49.456;8.164;2023-01-30T11:22:24;100077.75;;;4.82;74.56
16777;BME280;8505;49.456;8.164;2023-01-30T11:25:00;100078.84;;;5.21;74.11
16777;BME280;8505;49.456;8.164;2023-01-30T11:27:32;100097.72;;;5.87;71.26
16777;BME280;8505;49.456;8.164;2023-01-30T11:30:06;100113.94;;;5.61;71.31
16777;BME280;8505;49.456;8.164;2023-01-30T11:32:38;100110.81;;;5.26;72.87
16777;BME280;8505;49.456;8.164;2023-01-30T11:38:26;100076.72;;;4.73;74.77
16777;BME280;8505;49.456;8.164;2023-01-30T11:41:02;100093.75;;;4.47;75.50
16777;BME280;8505;49.456;8.164;2023-01-30T11:43:33;100091.00;;;4.48;76.07
16777;BME280;8505;49.456;8.164;2023-01-30T11:46:02;100105.47;;;4.32;76.46
16777;BME280;8505;49.456;8.164;2023-01-30T11:48:33;100086.28;;;4.74;75.37
16777;BME280;8505;49.456;8.164;2023-01-30T11:51:22;100090.88;;;4.82;74.67
16777;BME280;8505;49.456;8.164;2023-01-30T11:53:54;100087.97;;;4.64;75.06
16777;BME280;8505;49.456;8.164;2023-01-30T11:56:29;100089.13;;;4.39;75.71
16777;BME280;8505;49.456;8.164;2023-01-30T11:59:02;100082.69;;;4.32;77.23
16777;BME280;8505;49.456;8.164;2023-01-30T12:01:32;100093.13;;;4.12;78.54
16777;BME280;8505;49.456;8.164;2023-01-30T12:04:04;100085.31;;;4.43;78.41
16777;BME280;8505;49.456;8.164;2023-01-30T12:06:35;100109.13;;;4.40;77.89
16777;BME280;8505;49.456;8.164;2023-01-30T12:09:04;100112.91;;;4.04;78.62
16777;BME280;8505;49.456;8.164;2023-01-30T12:11:41;100093.81;;;4.14;78.83
16777;BME280;8505;49.456;8.164;2023-01-30T12:14:34;100101.41;;;4.28;78.70
16777;BME280;8505;49.456;8.164;2023-01-30T12:17:11;100085.22;;;4.23;78.37
16777;BME280;8505;49.456;8.164;2023-01-30T12:19:47;100092.03;;;4.25;78.35
16777;BME280;8505;49.456;8.164;2023-01-30T12:22:23;100097.16;;;4.16;79.12
16777;BME280;8505;49.456;8.164;2023-01-30T12:24:57;100099.19;;;4.12;79.05
16777;BME280;8505;49.456;8.164;2023-01-30T12:27:32;100085.13;;;4.02;79.48
16777;BME280;8505;49.456;8.164;2023-01-30T12:30:18;100089.88;;;4.08;79.56
16777;BME280;8505;49.456;8.164;2023-01-30T12:32:47;100090.69;;;4.20;79.59
16777;BME280;8505;49.456;8.164;2023-01-30T12:35:17;100091.97;;;4.47;78.71
16777;BME280;8505;49.456;8.164;2023-01-30T12:37:54;100082.47;;;4.35;78.88
16777;BME280;8505;49.456;8.164;2023-01-30T12:40:34;100088.09;;;4.08;79.80
16777;BME280;8505;49.456;8.164;2023-01-30T12:43:17;100073.31;;;4.30;79.95
16777;BME280;8505;49.456;8.164;2023-01-30T12:45:58;100078.69;;;4.17;79.89
16777;BME280;8505;49.456;8.164;2023-01-30T12:48:48;100074.13;;;4.30;80.26
16777;BME280;8505;49.456;8.164;2023-01-30T12:51:52;100077.69;;;4.40;79.84
16777;BME280;8505;49.456;8.164;2023-01-30T12:54:34;100074.94;;;4.42;80.50
16777;BME280;8505;49.456;8.164;2023-01-30T12:57:19;100084.91;;;4.05;81.99
16777;BME280;8505;49.456;8.164;2023-01-30T12:59:59;100068.81;;;4.10;82.35
16777;BME280;8505;49.456;8.164;2023-01-30T13:02:49;100092.03;;;4.57;82.89
16777;BME280;8505;49.456;8.164;2023-01-30T13:05:31;100106.78;;;4.37;82.60
16777;BME280;8505;49.456;8.164;2023-01-30T13:08:19;100109.88;;;4.20;82.34
16777;BME280;8505;49.456;8.164;2023-01-30T13:10:55;100114.09;;;4.00;83.39
16777;BME280;8505;49.456;8.164;2023-01-30T13:13:30;100117.25;;;4.26;83.13
16777;BME280;8505;49.456;8.164;2023-01-30T13:16:05;100116.94;;;4.08;83.23
16777;BME280;8505;49.456;8.164;2023-01-30T13:18:41;100112.28;;;4.12;84.03
16777;BME280;8505;49.456;8.164;2023-01-30T13:21:15;100118.94;;;4.27;82.99
16777;BME280;8505;49.456;8.164;2023-01-30T13:23:58;100115.28;;;4.19;82.92
16777;BME280;8505;49.456;8.164;2023-01-30T13:26:31;100115.41;;;4.06;83.44
16777;BME280;8505;49.456;8.164;2023-01-30T13:29:02;100124.44;;;4.24;82.92
16777;BME280;8505;49.456;8.164;2023-01-30T13:31:34;100114.84;;;4.45;81.83
16777;BME280;8505;49.456;8.164;2023-01-30T13:34:10;100099.22;;;4.55;81.67
16777;BME280;8505;49.456;8.164;2023-01-30T13:36:41;100099.66;;;4.60;80.53
16777;BME280;8505;49.456;8.164;2023-01-30T13:39:13;100093.50;;;4.50;81.13
16777;BME280;8505;49.456;8.164;2023-01-30T13:41:50;100099.72;;;4.49;81.16
16777;BME280;8505;49.456;8.164;2023-01-30T13:44:22;100103.38;;;5.10;78.74